createdAt,value
2018-05-13T00:00:01.590Z,15.84
2018-05-13T00:01:01.620Z,15.75
2018-05-13T00:02:01.641Z,15.87
2018-05-13T00:03:01.656Z,15.76
2018-05-13T00:04:01.683Z,15.78
2018-05-13T00:05:01.708Z,15.78
2018-05-13T00:06:01.721Z,15.75
2018-05-13T00:08:01.772Z,15.70
2018-05-13T00:09:01.787Z,15.69
2018-05-13T00:10:01.813Z,15.75
2018-05-13T00:11:01.828Z,15.67
2018-05-13T00:12:01.851Z,15.66
2018-05-13T00:13:01.877Z,15.69
2018-05-13T00:14:01.892Z,15.73
2018-05-13T00:15:01.918Z,15.73
2018-05-13T00:16:01.943Z,15.66
2018-05-13T00:17:01.957Z,15.63
2018-05-13T00:18:01.983Z,15.59
2018-05-13T00:19:02.008Z,15.57
2018-05-13T00:20:02.023Z,15.65
2018-05-13T00:21:02.053Z,15.59
2018-05-13T00:22:02.062Z,15.63
2018-05-13T00:23:02.088Z,15.60
2018-05-13T00:24:02.115Z,15.67
2018-05-13T00:25:02.133Z,15.65
2018-05-13T00:26:02.154Z,15.63
2018-05-13T00:27:02.180Z,15.57
2018-05-13T00:28:02.194Z,15.50
2018-05-13T00:29:02.218Z,15.57
2018-05-13T00:30:02.234Z,15.54
2018-05-13T00:31:02.259Z,15.54
2018-05-13T00:32:02.284Z,15.59
2018-05-13T00:33:02.298Z,15.51
2018-05-13T00:34:02.335Z,15.55
2018-05-13T00:35:02.348Z,15.50
2018-05-13T00:36:02.364Z,15.55
2018-05-13T00:37:02.391Z,15.48
2018-05-13T00:38:02.407Z,15.51
2018-05-13T00:39:02.429Z,15.51
2018-05-13T00:40:02.454Z,15.45
2018-05-13T00:41:02.469Z,15.48
2018-05-13T00:42:02.494Z,15.55
2018-05-13T00:43:02.519Z,15.43
2018-05-13T00:44:02.534Z,15.50
2018-05-13T00:45:02.562Z,15.51
2018-05-13T00:46:02.584Z,15.44
2018-05-13T00:47:02.599Z,15.36
2018-05-13T00:48:02.625Z,15.43
2018-05-13T00:49:02.639Z,15.35
2018-05-13T00:51:02.689Z,15.43
2018-05-13T00:52:02.703Z,15.36
2018-05-13T00:53:02.730Z,15.41
2018-05-13T00:54:02.756Z,15.35
2018-05-13T00:55:02.782Z,15.37
2018-05-13T00:56:02.794Z,15.35
2018-05-13T00:57:02.820Z,15.33
2018-05-13T00:58:02.834Z,15.32
2018-05-13T00:59:02.861Z,15.32
2018-05-13T01:00:02.875Z,15.25
2018-05-13T01:01:02.913Z,15.33
2018-05-13T01:02:02.928Z,15.32
2018-05-13T01:03:02.939Z,15.26
2018-05-13T01:04:02.965Z,15.26
2018-05-13T01:05:02.991Z,15.27
2018-05-13T01:06:03.009Z,15.27
2018-05-13T01:07:03.031Z,15.29
2018-05-13T01:08:03.044Z,15.30
2018-05-13T01:09:03.070Z,15.29
2018-05-13T01:10:03.099Z,15.17
2018-05-13T01:12:03.134Z,15.15
2018-05-13T01:13:03.160Z,15.14
2018-05-13T01:14:03.177Z,15.17
2018-05-13T01:15:03.201Z,15.19
2018-05-13T01:16:03.215Z,15.19
2018-05-13T01:17:03.240Z,15.23
2018-05-13T01:18:03.265Z,15.23
2018-05-13T01:19:03.280Z,15.07
2018-05-13T01:20:03.306Z,15.14
2018-05-13T01:21:03.318Z,15.08
2018-05-13T01:22:03.358Z,15.10
2018-05-13T01:23:03.370Z,15.14
2018-05-13T01:24:03.385Z,15.08
2018-05-13T01:25:03.413Z,15.04
2018-05-13T01:26:03.425Z,15.07
2018-05-13T01:27:03.449Z,15.10
2018-05-13T01:28:03.476Z,15.02
2018-05-13T01:29:03.490Z,15.11
2018-05-13T01:30:03.518Z,15.12
2018-05-13T01:31:03.542Z,15.05
2018-05-13T01:32:03.554Z,15.11
2018-05-13T01:33:03.580Z,15.04
2018-05-13T01:34:03.594Z,15.02
2018-05-13T01:35:03.620Z,15.04
2018-05-13T01:36:03.647Z,14.97
2018-05-13T01:37:03.659Z,15.08
2018-05-13T01:39:03.699Z,14.96
2018-05-13T01:40:03.728Z,15.00
2018-05-13T01:41:03.754Z,15.02
2018-05-13T01:42:03.765Z,15.04
2018-05-13T01:43:03.790Z,15.00
2018-05-13T01:44:03.816Z,15.00
2018-05-13T01:45:03.842Z,15.00
2018-05-13T01:46:03.862Z,14.94
2018-05-13T01:48:03.895Z,14.96
2018-05-13T01:49:03.921Z,14.93
2018-05-13T01:50:04.138Z,14.97
2018-05-13T01:51:03.964Z,14.93
2018-05-13T01:52:03.975Z,14.93
2018-05-13T01:53:04.001Z,14.90
2018-05-13T01:54:04.050Z,14.86
2018-05-13T01:55:04.040Z,14.93
2018-05-13T01:56:04.268Z,14.92
2018-05-13T01:57:04.079Z,14.86
2018-05-13T01:58:04.106Z,14.90
2018-05-13T01:59:04.131Z,14.74
2018-05-13T02:00:04.150Z,14.87
2018-05-13T02:01:04.172Z,14.89
2018-05-13T02:02:04.184Z,14.86
2018-05-13T02:03:04.209Z,14.89
2018-05-13T02:04:04.236Z,14.79
2018-05-13T02:05:04.253Z,14.85
2018-05-13T02:06:04.275Z,14.74
2018-05-13T02:07:04.289Z,14.73
2018-05-13T02:08:04.315Z,14.77
2018-05-13T02:09:04.341Z,14.77
2018-05-13T02:10:04.557Z,14.81
2018-05-13T02:11:04.380Z,14.82
2018-05-13T02:12:04.400Z,14.79
2018-05-13T02:13:04.420Z,14.78
2018-05-13T02:14:04.445Z,14.78
2018-05-13T02:15:04.459Z,14.78
2018-05-13T02:16:04.485Z,14.82
2018-05-13T02:17:04.498Z,14.79
2018-05-13T02:18:04.524Z,14.78
2018-05-13T02:19:04.552Z,14.82
2018-05-13T02:20:04.565Z,14.71
2018-05-13T02:21:04.590Z,14.73
2018-05-13T02:22:04.603Z,14.74
2018-05-13T02:23:04.628Z,14.78
2018-05-13T02:24:04.655Z,14.73
2018-05-13T02:25:04.669Z,14.73
2018-05-13T02:26:04.696Z,14.68
2018-05-13T02:27:04.711Z,14.73
2018-05-13T02:28:04.747Z,14.79
2018-05-13T02:29:04.760Z,14.74
2018-05-13T02:30:04.779Z,14.77
2018-05-13T02:31:04.802Z,14.74
2018-05-13T02:32:04.814Z,14.82
2018-05-13T02:33:04.842Z,14.77
2018-05-13T02:34:04.854Z,14.78
2018-05-13T02:35:04.880Z,14.77
2018-05-13T02:36:04.906Z,14.77
2018-05-13T02:37:04.921Z,14.79
2018-05-13T02:38:04.944Z,14.73
2018-05-13T02:39:04.959Z,14.71
2018-05-13T02:40:04.986Z,14.86
2018-05-13T02:41:05.011Z,14.77
2018-05-13T02:42:05.034Z,14.78
2018-05-13T02:43:05.050Z,14.86
2018-05-13T02:44:05.063Z,14.82
2018-05-13T02:45:05.089Z,14.82
2018-05-13T02:46:05.115Z,14.81
2018-05-13T02:47:05.128Z,14.78
2018-05-13T02:48:05.155Z,14.78
2018-05-13T02:49:05.169Z,14.77
2018-05-13T02:50:05.194Z,14.81
2018-05-13T02:51:05.210Z,14.77
2018-05-13T02:53:05.258Z,14.82
2018-05-13T02:54:05.278Z,14.81
2018-05-13T02:55:05.299Z,14.73
2018-05-13T02:56:05.331Z,14.77
2018-05-13T02:57:05.338Z,14.79
2018-05-13T02:58:05.363Z,14.82
2018-05-13T02:59:05.379Z,14.78
2018-05-13T03:00:05.410Z,14.82
2018-05-13T03:01:05.417Z,14.79
2018-05-13T03:02:05.443Z,14.81
2018-05-13T03:03:05.470Z,14.78
2018-05-13T03:04:05.485Z,14.77
2018-05-13T03:05:05.508Z,14.81
2018-05-13T03:06:05.614Z,14.81
2018-05-13T03:07:05.548Z,14.74
2018-05-13T03:08:05.573Z,14.78
2018-05-13T03:09:05.587Z,14.89
2018-05-13T03:10:05.615Z,14.74
2018-05-13T03:12:05.655Z,14.78
2018-05-13T03:13:05.667Z,14.77
2018-05-13T03:14:05.693Z,14.74
2018-05-13T03:15:05.719Z,14.82
2018-05-13T03:16:05.731Z,14.82
2018-05-13T03:17:05.772Z,14.79
2018-05-13T03:18:05.771Z,14.81
2018-05-13T03:19:05.844Z,14.73
2018-05-13T03:20:06.027Z,14.79
2018-05-13T03:21:05.840Z,14.81
2018-05-13T03:22:05.865Z,14.81
2018-05-13T03:23:05.876Z,14.81
2018-05-13T03:24:05.902Z,14.78
2018-05-13T03:25:05.929Z,14.79
2018-05-13T03:26:05.940Z,14.82
2018-05-13T03:27:05.967Z,14.74
2018-05-13T03:28:05.985Z,14.79
2018-05-13T03:29:06.008Z,14.89
2018-05-13T03:30:06.034Z,14.79
2018-05-13T03:31:06.059Z,14.73
2018-05-13T03:32:06.072Z,14.78
2018-05-13T03:33:06.087Z,14.87
2018-05-13T03:34:06.113Z,14.85
2018-05-13T03:35:06.125Z,14.90
2018-05-13T03:36:06.151Z,14.78
2018-05-13T03:37:06.191Z,14.85
2018-05-13T03:38:06.190Z,14.85
2018-05-13T03:39:06.217Z,14.85
2018-05-13T03:40:06.234Z,14.87
2018-05-13T03:41:06.256Z,14.89
2018-05-13T03:42:06.282Z,14.86
2018-05-13T03:43:06.299Z,14.93
2018-05-13T03:44:06.323Z,14.94
2018-05-13T03:45:06.334Z,14.94
2018-05-13T03:46:06.360Z,14.93
2018-05-13T03:48:06.603Z,14.89
2018-05-13T03:49:06.426Z,14.90
2018-05-13T03:50:06.442Z,14.94
2018-05-13T03:51:06.478Z,14.96
2018-05-13T03:52:06.491Z,14.99
2018-05-13T03:53:06.505Z,14.99
2018-05-13T03:54:06.532Z,15.00
2018-05-13T03:55:06.544Z,14.97
2018-05-13T03:56:06.569Z,15.05
2018-05-13T03:57:06.595Z,15.07
2018-05-13T03:58:06.610Z,15.04
2018-05-13T03:59:06.635Z,15.02
2018-05-13T04:00:06.649Z,15.02
2018-05-13T04:01:06.677Z,15.04
2018-05-13T04:02:06.689Z,15.07
2018-05-13T04:03:06.716Z,15.04
2018-05-13T04:04:06.741Z,15.04
2018-05-13T04:05:06.766Z,15.12
2018-05-13T04:06:06.779Z,15.08
2018-05-13T04:07:06.795Z,15.17
2018-05-13T04:08:06.819Z,15.07
2018-05-13T04:09:06.845Z,15.17
2018-05-13T04:10:06.861Z,15.18
2018-05-13T04:11:06.884Z,15.19
2018-05-13T04:12:06.923Z,15.11
2018-05-13T04:13:06.924Z,15.15
2018-05-13T04:14:06.951Z,15.23
2018-05-13T04:15:07.046Z,15.22
2018-05-13T04:16:06.989Z,15.27
2018-05-13T04:17:07.015Z,15.29
2018-05-13T04:18:07.030Z,15.30
2018-05-13T04:19:07.055Z,15.27
2018-05-13T04:20:07.081Z,15.29
2018-05-13T04:21:07.094Z,15.33
2018-05-13T04:22:07.120Z,15.26
2018-05-13T04:23:07.134Z,15.30
2018-05-13T04:24:07.166Z,15.30
2018-05-13T04:25:07.175Z,15.30
2018-05-13T04:26:07.213Z,15.33
2018-05-13T04:27:07.226Z,15.36
2018-05-13T04:28:07.240Z,15.32
2018-05-13T04:29:07.273Z,15.33
2018-05-13T04:30:07.291Z,15.22
2018-05-13T04:31:07.306Z,15.25
2018-05-13T04:32:07.332Z,15.32
2018-05-13T04:33:07.346Z,15.36
2018-05-13T04:34:07.371Z,15.36
2018-05-13T04:35:07.396Z,15.33
2018-05-13T04:36:07.410Z,15.33
2018-05-13T04:37:07.436Z,15.32
2018-05-13T04:38:07.461Z,15.39
2018-05-13T04:39:07.476Z,15.41
2018-05-13T04:40:07.501Z,15.51
2018-05-13T04:41:07.518Z,15.45
2018-05-13T04:42:07.540Z,15.50
2018-05-13T04:43:07.565Z,15.52
2018-05-13T04:44:07.580Z,15.47
2018-05-13T04:45:07.605Z,15.52
2018-05-13T04:46:07.632Z,15.50
2018-05-13T04:47:07.644Z,15.55
2018-05-13T04:48:07.671Z,15.54
2018-05-13T04:49:07.696Z,15.57
2018-05-13T04:50:07.710Z,15.57
2018-05-13T04:51:07.737Z,15.63
2018-05-13T04:52:07.750Z,15.65
2018-05-13T04:53:07.789Z,15.70
2018-05-13T04:54:07.800Z,15.65
2018-05-13T04:55:07.816Z,15.66
2018-05-13T04:56:07.842Z,15.65
2018-05-13T04:57:07.867Z,15.63
2018-05-13T04:58:07.880Z,15.80
2018-05-13T04:59:07.907Z,15.73
2018-05-13T05:00:07.934Z,15.78
2018-05-13T05:01:07.946Z,15.75
2018-05-13T05:02:07.975Z,15.88
2018-05-13T05:03:07.999Z,15.85
2018-05-13T05:04:08.012Z,15.88
2018-05-13T05:05:08.037Z,15.83
2018-05-13T05:06:08.051Z,15.90
2018-05-13T05:07:08.076Z,15.92
2018-05-13T05:08:08.104Z,15.92
2018-05-13T05:09:08.117Z,15.92
2018-05-13T05:10:08.141Z,15.99
2018-05-13T05:11:08.168Z,16.06
2018-05-13T05:12:08.182Z,16.06
2018-05-13T05:13:08.208Z,16.03
2018-05-13T05:14:08.235Z,16.10
2018-05-13T05:15:08.246Z,16.12
2018-05-13T05:16:08.272Z,16.13
2018-05-13T05:17:08.297Z,16.21
2018-05-13T05:18:08.312Z,16.21
2018-05-13T05:19:08.339Z,16.26
2018-05-13T05:20:08.365Z,16.29
2018-05-13T05:21:08.377Z,16.25
2018-05-13T05:22:08.409Z,16.29
2018-05-13T05:23:08.429Z,16.31
2018-05-13T05:24:08.444Z,16.37
2018-05-13T05:25:08.469Z,16.32
2018-05-13T05:26:08.697Z,16.37
2018-05-13T05:27:08.511Z,16.36
2018-05-13T05:29:08.559Z,16.43
2018-05-13T05:30:08.575Z,16.39
2018-05-13T05:31:08.600Z,16.46
2018-05-13T05:32:08.626Z,16.46
2018-05-13T05:33:08.652Z,16.50
2018-05-13T05:34:08.664Z,16.51
2018-05-13T05:35:08.691Z,16.51
2018-05-13T05:36:08.716Z,16.57
2018-05-13T05:37:08.730Z,16.59
2018-05-13T05:38:08.756Z,16.65
2018-05-13T05:39:08.985Z,16.66
2018-05-13T05:40:08.797Z,16.73
2018-05-13T05:41:08.822Z,16.80
2018-05-13T05:42:08.849Z,16.82
2018-05-13T05:43:08.862Z,16.76
2018-05-13T05:44:08.887Z,16.76
2018-05-13T05:45:08.913Z,16.91
2018-05-13T05:46:09.142Z,16.87
2018-05-13T05:47:08.952Z,16.86
2018-05-13T05:48:08.978Z,16.97
2018-05-13T05:49:09.005Z,16.97
2018-05-13T05:50:09.019Z,17.01
2018-05-13T05:51:09.046Z,17.04
2018-05-13T05:52:09.070Z,17.05
2018-05-13T05:53:09.102Z,17.07
2018-05-13T05:54:09.109Z,17.16
2018-05-13T05:56:09.174Z,17.19
2018-05-13T05:57:09.253Z,17.31
2018-05-13T05:58:09.403Z,17.31
2018-05-13T05:59:09.227Z,17.30
2018-05-13T06:00:09.253Z,17.38
2018-05-13T06:01:09.266Z,17.44
2018-05-13T06:03:09.338Z,17.57
2018-05-13T06:04:09.345Z,17.63
2018-05-13T06:05:09.359Z,17.65
2018-05-13T06:06:09.384Z,17.68
2018-05-13T06:07:09.411Z,17.72
2018-05-13T06:08:09.438Z,17.76
2018-05-13T06:09:09.449Z,17.78
2018-05-13T06:10:09.475Z,17.88
2018-05-13T06:11:09.501Z,17.97
2018-05-13T06:12:09.530Z,17.82
2018-05-13T06:13:09.541Z,18.03
2018-05-13T06:14:09.567Z,18.03
2018-05-13T06:15:09.593Z,18.05
2018-05-13T06:16:09.619Z,18.16
2018-05-13T06:17:09.649Z,18.24
2018-05-13T06:19:09.685Z,18.28
2018-05-13T06:20:09.709Z,18.52
2018-05-13T06:21:09.735Z,18.58
2018-05-13T06:22:09.763Z,18.66
2018-05-13T06:23:09.775Z,18.81
2018-05-13T06:24:10.030Z,18.81
2018-05-13T06:25:09.886Z,18.94
2018-05-13T06:26:09.853Z,19.07
2018-05-13T06:27:09.880Z,19.23
2018-05-13T06:28:09.905Z,19.27
2018-05-13T06:29:09.932Z,19.44
2018-05-13T06:30:09.957Z,19.59
2018-05-13T06:31:09.981Z,19.72
2018-05-13T06:32:10.010Z,19.93
2018-05-13T06:34:10.054Z,20.37
2018-05-13T06:35:10.074Z,20.59
2018-05-13T06:36:10.101Z,20.80
2018-05-13T06:37:10.130Z,20.92
2018-05-13T06:38:10.153Z,21.14
2018-05-13T06:39:10.195Z,21.23
2018-05-13T06:40:10.567Z,21.41
2018-05-13T06:41:10.243Z,21.66
2018-05-13T06:42:10.268Z,21.88
2018-05-13T06:43:10.295Z,21.96
2018-05-13T06:44:10.524Z,22.15
2018-05-13T06:45:10.441Z,22.28
2018-05-13T06:47:10.413Z,22.51
2018-05-13T06:48:10.437Z,22.68
2018-05-13T06:49:10.476Z,22.74
2018-05-13T06:52:10.554Z,23.11
2018-05-13T06:53:10.580Z,23.21
2018-05-13T06:54:10.606Z,23.42
2018-05-13T06:55:10.631Z,23.42
2018-05-13T06:56:10.670Z,23.62
2018-05-13T06:57:10.696Z,23.84
2018-05-13T06:58:10.722Z,23.89
2018-05-13T06:59:10.753Z,24.10
2018-05-13T07:00:10.786Z,24.19
2018-05-13T07:01:10.813Z,24.26
2018-05-13T07:02:10.839Z,24.44
2018-05-13T07:03:10.877Z,24.58
2018-05-13T07:04:10.908Z,24.68
2018-05-13T07:06:10.971Z,24.75
2018-05-13T07:07:10.993Z,24.71
2018-05-13T07:08:11.023Z,24.78
2018-05-13T07:09:11.058Z,24.93
2018-05-13T07:10:11.083Z,24.97
2018-05-13T07:11:11.110Z,25.03
2018-05-13T07:12:11.149Z,25.21
2018-05-13T07:13:11.377Z,25.31
2018-05-13T07:14:11.212Z,25.33
2018-05-13T07:16:11.302Z,25.59
2018-05-13T07:17:11.303Z,25.54
2018-05-13T07:18:11.330Z,25.63
2018-05-13T07:19:11.367Z,25.76
2018-05-13T07:20:11.404Z,25.80
2018-05-13T07:21:11.433Z,25.85
2018-05-13T07:22:11.470Z,25.96
2018-05-13T07:23:11.503Z,25.96
2018-05-13T07:24:11.522Z,26.13
2018-05-13T07:25:11.562Z,26.18
2018-05-13T07:26:11.587Z,26.19
2018-05-13T07:27:11.625Z,26.24
2018-05-13T07:28:11.664Z,26.29
2018-05-13T07:29:11.694Z,26.37
2018-05-13T07:30:11.717Z,26.46
2018-05-13T07:31:11.754Z,26.48
2018-05-13T07:32:11.780Z,26.49
2018-05-13T07:33:11.819Z,26.51
2018-05-13T07:34:11.858Z,26.61
2018-05-13T07:35:11.896Z,26.64
2018-05-13T07:36:11.923Z,26.81
2018-05-13T07:37:11.948Z,26.74
2018-05-13T07:38:11.986Z,26.85
2018-05-13T07:39:12.013Z,26.93
2018-05-13T07:40:12.057Z,27.00
2018-05-13T07:41:12.090Z,27.01
2018-05-13T07:42:12.116Z,27.04
2018-05-13T07:43:12.154Z,27.11
2018-05-13T07:44:12.192Z,27.04
2018-05-13T07:45:12.218Z,27.18
2018-05-13T07:46:12.257Z,27.28
2018-05-13T07:47:12.284Z,27.34
2018-05-13T07:48:12.320Z,27.38
2018-05-13T07:49:12.361Z,27.43
2018-05-13T07:50:12.386Z,27.53
2018-05-13T07:51:12.424Z,27.52
2018-05-13T07:52:12.463Z,27.55
2018-05-13T07:53:12.500Z,27.57
2018-05-13T07:54:12.573Z,27.52
2018-05-13T07:55:12.571Z,27.50
2018-05-13T07:56:12.603Z,27.67
2018-05-13T07:57:12.631Z,27.71
2018-05-13T07:58:12.673Z,27.76
2018-05-13T07:59:12.706Z,27.78
2018-05-13T08:00:12.734Z,27.66
2018-05-13T08:01:12.771Z,27.81
2018-05-13T08:02:12.809Z,27.63
2018-05-13T08:03:12.848Z,27.76
2018-05-13T08:04:12.875Z,27.63
2018-05-13T08:05:12.912Z,27.63
2018-05-13T08:06:12.970Z,27.64
2018-05-13T08:07:12.989Z,27.66
2018-05-13T08:08:13.017Z,27.66
2018-05-13T08:09:13.054Z,27.78
2018-05-13T08:10:13.094Z,27.79
2018-05-13T08:11:13.335Z,27.83
2018-05-13T08:12:13.169Z,28.04
2018-05-13T08:13:13.196Z,28.01
2018-05-13T08:14:13.235Z,28.06
2018-05-13T08:15:13.272Z,28.06
2018-05-13T08:16:13.314Z,28.18
2018-05-13T08:17:13.362Z,28.16
2018-05-13T08:18:13.375Z,28.20
2018-05-13T08:19:13.425Z,28.20
2018-05-13T08:20:13.473Z,28.19
2018-05-13T08:21:13.490Z,27.86
2018-05-13T08:22:13.529Z,27.83
2018-05-13T08:24:13.618Z,27.66
2018-05-13T08:25:13.631Z,27.72
2018-05-13T08:26:13.670Z,27.64
2018-05-13T08:27:13.708Z,27.55
2018-05-13T08:28:13.748Z,27.47
2018-05-13T08:29:13.785Z,27.37
2018-05-13T08:30:13.812Z,27.38
2018-05-13T08:31:13.851Z,27.26
2018-05-13T08:32:13.889Z,27.22
2018-05-13T08:33:13.927Z,27.07
2018-05-13T08:34:13.953Z,26.96
2018-05-13T08:35:13.992Z,26.98
2018-05-13T08:36:14.031Z,26.91
2018-05-13T08:37:14.069Z,26.88
2018-05-13T08:38:14.108Z,26.78
2018-05-13T08:39:14.167Z,26.74
2018-05-13T08:40:14.171Z,26.68
2018-05-13T08:41:14.197Z,26.68
2018-05-13T08:42:14.236Z,26.66
2018-05-13T08:43:14.276Z,26.59
2018-05-13T08:44:14.300Z,26.48
2018-05-13T08:45:14.340Z,26.49
2018-05-13T08:46:14.378Z,26.39
2018-05-13T08:47:14.403Z,26.26
2018-05-13T08:48:14.441Z,26.34
2018-05-13T08:49:14.481Z,26.31
2018-05-13T08:50:14.505Z,26.29
2018-05-13T08:51:14.544Z,26.27
2018-05-13T08:52:14.571Z,26.27
2018-05-13T08:53:14.609Z,26.22
2018-05-13T08:54:14.647Z,26.22
2018-05-13T08:55:14.674Z,26.27
2018-05-13T08:56:14.711Z,26.36
2018-05-13T08:57:14.748Z,26.31
2018-05-13T08:58:14.777Z,26.22
2018-05-13T08:59:14.814Z,26.26
2018-05-13T09:00:14.841Z,26.22
2018-05-13T09:01:14.880Z,26.19
2018-05-13T09:02:14.917Z,26.19
2018-05-13T09:03:14.944Z,26.39
2018-05-13T09:04:14.984Z,26.34
2018-05-13T09:05:15.021Z,26.39
2018-05-13T09:07:15.091Z,26.52
2018-05-13T09:08:15.124Z,26.60
2018-05-13T09:09:15.150Z,26.68
2018-05-13T09:10:15.189Z,26.78
2018-05-13T09:11:15.226Z,26.81
2018-05-13T09:12:15.266Z,26.89
2018-05-13T09:13:15.291Z,26.89
2018-05-13T09:14:15.336Z,26.97
2018-05-13T09:15:15.368Z,26.98
2018-05-13T09:16:15.407Z,27.00
2018-05-13T09:17:15.431Z,27.13
2018-05-13T09:18:15.471Z,27.19
2018-05-13T09:19:15.510Z,27.25
2018-05-13T09:20:15.548Z,27.25
2018-05-13T09:21:15.574Z,27.40
2018-05-13T09:22:15.612Z,27.41
2018-05-13T09:23:15.652Z,27.45
2018-05-13T09:24:15.688Z,27.55
2018-05-13T09:25:15.729Z,27.64
2018-05-13T09:26:15.754Z,27.71
2018-05-13T09:27:15.806Z,27.71
2018-05-13T09:28:15.831Z,27.78
2018-05-13T09:29:15.870Z,27.83
2018-05-13T09:30:15.935Z,27.97
2018-05-13T09:31:15.935Z,28.00
2018-05-13T09:32:15.973Z,28.01
2018-05-13T09:33:16.011Z,28.06
2018-05-13T09:34:16.038Z,28.09
2018-05-13T09:35:16.076Z,28.16
2018-05-13T09:36:16.114Z,28.28
2018-05-13T09:37:16.152Z,28.31
2018-05-13T09:38:16.191Z,28.35
2018-05-13T09:39:16.229Z,28.45
2018-05-13T09:40:16.268Z,28.57
2018-05-13T09:41:16.295Z,28.71
2018-05-13T09:42:16.332Z,28.74
2018-05-13T09:43:16.373Z,28.75
2018-05-13T09:44:16.408Z,28.82
2018-05-13T09:45:16.649Z,28.93
2018-05-13T09:46:16.486Z,29.07
2018-05-13T09:47:16.524Z,29.05
2018-05-13T09:48:16.562Z,29.20
2018-05-13T09:49:16.602Z,29.24
2018-05-13T09:50:16.639Z,29.13
2018-05-13T09:51:16.733Z,29.35
2018-05-13T09:52:16.705Z,29.42
2018-05-13T09:54:16.782Z,29.46
2018-05-13T09:55:16.819Z,29.59
2018-05-13T09:56:16.859Z,29.69
2018-05-13T09:57:16.896Z,29.65
2018-05-13T09:58:16.935Z,30.03
2018-05-13T09:59:16.973Z,29.98
2018-05-13T10:01:17.051Z,30.14
2018-05-13T10:02:17.101Z,30.17
2018-05-13T10:03:17.140Z,30.23
2018-05-13T10:04:17.169Z,30.31
2018-05-13T10:05:17.206Z,30.23
2018-05-13T10:06:17.243Z,30.33
2018-05-13T10:07:17.280Z,30.44
2018-05-13T10:08:17.319Z,30.51
2018-05-13T10:09:17.358Z,30.65
2018-05-13T10:10:17.397Z,30.80
2018-05-13T10:11:17.434Z,30.96
2018-05-13T10:12:17.473Z,31.07
2018-05-13T10:14:17.550Z,31.22
2018-05-13T10:16:17.627Z,31.44
2018-05-13T10:17:17.666Z,31.54
2018-05-13T10:18:17.729Z,31.67
2018-05-13T10:19:17.755Z,31.79
2018-05-13T10:20:17.806Z,32.00
2018-05-13T10:21:17.832Z,32.07
2018-05-13T10:22:17.871Z,32.19
2018-05-13T10:23:17.921Z,32.31
2018-05-13T10:24:17.960Z,32.60
2018-05-13T10:25:17.998Z,32.66
2018-05-13T10:26:18.037Z,32.76
2018-05-13T10:27:18.109Z,32.83
2018-05-13T10:28:18.475Z,33.05
2018-05-13T10:29:18.168Z,33.22
2018-05-13T10:30:18.222Z,33.35
2018-05-13T10:31:18.297Z,33.31
2018-05-13T10:32:18.292Z,33.31
2018-05-13T10:33:18.331Z,33.44
2018-05-13T10:34:18.372Z,33.40
2018-05-13T10:35:18.468Z,33.38
2018-05-13T10:36:18.562Z,33.39
2018-05-13T10:37:18.497Z,33.40
2018-05-13T10:38:18.540Z,33.44
2018-05-13T10:39:18.587Z,33.58
2018-05-13T10:40:18.626Z,33.65
2018-05-13T10:41:18.664Z,33.79
2018-05-13T10:42:18.704Z,33.94
2018-05-13T10:43:18.756Z,33.97
2018-05-13T10:44:18.797Z,34.09
2018-05-13T10:45:18.841Z,34.14
2018-05-13T10:46:18.869Z,34.38
2018-05-13T10:47:18.919Z,34.69
2018-05-13T10:48:18.959Z,34.59
2018-05-13T10:49:18.996Z,34.73
2018-05-13T10:50:19.048Z,34.58
2018-05-13T10:51:19.086Z,34.91
2018-05-13T10:52:19.124Z,34.96
2018-05-13T10:53:19.176Z,34.91
2018-05-13T10:54:19.216Z,34.96
2018-05-13T10:56:19.505Z,35.04
2018-05-13T10:57:19.341Z,35.15
2018-05-13T10:58:19.383Z,35.30
2018-05-13T10:59:19.430Z,35.23
2018-05-13T11:00:19.474Z,35.31
2018-05-13T11:01:19.507Z,35.41
2018-05-13T11:02:19.568Z,35.41
2018-05-13T11:06:19.730Z,35.82
2018-05-13T11:07:19.779Z,35.90
2018-05-13T11:08:19.831Z,36.00
2018-05-13T11:09:19.853Z,36.11
2018-05-13T11:10:19.982Z,36.26
2018-05-13T11:11:19.942Z,36.43
2018-05-13T11:12:19.982Z,36.53
2018-05-13T11:13:20.020Z,36.67
2018-05-13T11:15:20.112Z,36.67
2018-05-13T11:16:20.160Z,36.87
2018-05-13T11:17:20.199Z,37.07
2018-05-13T11:18:20.238Z,37.21
2018-05-13T11:19:20.289Z,37.41
2018-05-13T11:21:20.378Z,37.63
2018-05-13T11:22:20.418Z,37.67
2018-05-13T11:23:20.502Z,37.82
2018-05-13T11:24:20.505Z,37.76
2018-05-13T11:25:20.893Z,37.83
2018-05-13T11:26:20.797Z,37.78
2018-05-13T11:27:20.634Z,37.88
2018-05-13T11:28:20.685Z,37.86
2018-05-13T11:29:20.724Z,38.01
2018-05-13T11:30:20.775Z,37.80
2018-05-13T11:31:20.812Z,37.80
2018-05-13T11:32:20.852Z,37.75
2018-05-13T11:33:20.902Z,37.88
2018-05-13T11:34:20.940Z,38.00
2018-05-13T11:35:21.003Z,37.79
2018-05-13T11:36:21.031Z,37.63
2018-05-13T11:37:21.082Z,37.72
2018-05-13T11:38:21.119Z,37.92
2018-05-13T11:39:21.170Z,38.09
2018-05-13T11:40:21.209Z,38.10
2018-05-13T11:41:21.260Z,38.09
2018-05-13T11:42:21.299Z,38.14
2018-05-13T11:43:21.338Z,38.07
2018-05-13T11:44:21.388Z,38.12
2018-05-13T11:45:21.425Z,38.17
2018-05-13T11:46:21.476Z,38.27
2018-05-13T11:47:21.516Z,38.27
2018-05-13T11:48:21.567Z,38.32
2018-05-13T11:49:21.605Z,38.31
2018-05-13T11:50:21.656Z,38.42
2018-05-13T11:51:21.694Z,38.34
2018-05-13T11:52:21.732Z,38.32
2018-05-13T11:53:21.784Z,38.50
2018-05-13T11:54:21.823Z,38.35
2018-05-13T11:55:21.876Z,38.53
2018-05-13T11:56:21.923Z,38.50
2018-05-13T11:57:21.962Z,38.54
2018-05-13T11:58:22.004Z,38.50
2018-05-13T11:59:22.039Z,38.63
2018-05-13T12:00:22.090Z,38.51
2018-05-13T12:01:22.130Z,38.29
2018-05-13T12:02:22.187Z,38.32
2018-05-13T12:03:22.218Z,38.16
2018-05-13T12:04:22.283Z,38.23
2018-05-13T12:05:22.308Z,38.09
2018-05-13T12:06:22.346Z,38.04
2018-05-13T12:07:22.408Z,38.01
2018-05-13T12:08:22.508Z,37.95
2018-05-13T12:09:22.492Z,37.88
2018-05-13T12:10:22.544Z,37.88
2018-05-13T12:11:22.771Z,37.86
2018-05-13T12:12:22.618Z,37.79
2018-05-13T12:14:22.703Z,37.86
2018-05-13T12:15:22.743Z,37.98
2018-05-13T12:16:22.782Z,38.02
2018-05-13T12:17:22.832Z,38.12
2018-05-13T12:18:23.422Z,38.04
2018-05-13T12:19:22.912Z,38.00
2018-05-13T12:20:22.960Z,37.88
2018-05-13T12:21:22.998Z,37.86
2018-05-13T12:22:23.050Z,37.82
2018-05-13T12:24:23.128Z,37.98
2018-05-13T12:25:23.178Z,37.98
2018-05-13T12:26:23.579Z,38.10
2018-05-13T12:27:23.255Z,38.27
2018-05-13T12:28:23.309Z,38.35
2018-05-13T12:29:23.344Z,38.32
2018-05-13T12:30:23.396Z,38.31
2018-05-13T12:31:23.433Z,38.46
2018-05-13T12:32:23.471Z,38.51
2018-05-13T12:33:23.523Z,38.51
2018-05-13T12:34:23.561Z,38.65
2018-05-13T12:35:23.803Z,38.51
2018-05-13T12:36:23.650Z,38.41
2018-05-13T12:37:23.690Z,38.31
2018-05-13T12:38:23.741Z,38.13
2018-05-13T12:39:23.782Z,38.19
2018-05-13T12:40:23.822Z,38.13
2018-05-13T12:41:23.867Z,38.12
2018-05-13T12:42:24.255Z,38.09
2018-05-13T12:43:23.957Z,37.98
2018-05-13T12:44:23.998Z,38.00
2018-05-13T12:45:24.034Z,37.83
2018-05-13T12:46:24.085Z,37.75
2018-05-13T12:47:24.124Z,37.73
2018-05-13T12:48:24.161Z,37.68
2018-05-13T12:49:24.212Z,37.82
2018-05-13T12:50:24.251Z,37.95
2018-05-13T12:51:24.293Z,37.91
2018-05-13T12:52:24.342Z,37.75
2018-05-13T12:53:24.379Z,37.88
2018-05-13T12:54:24.417Z,37.82
2018-05-13T12:55:24.468Z,37.85
2018-05-13T12:56:24.608Z,37.67
2018-05-13T12:57:24.546Z,37.53
2018-05-13T12:58:24.655Z,37.61
2018-05-13T13:00:24.673Z,37.53
2018-05-13T13:01:24.737Z,37.40
2018-05-13T13:02:24.767Z,37.33
2018-05-13T13:03:24.803Z,37.26
2018-05-13T13:04:24.852Z,37.22
2018-05-13T13:05:24.890Z,37.16
2018-05-13T13:06:24.933Z,37.18
2018-05-13T13:07:24.968Z,37.33
2018-05-13T13:08:25.020Z,37.37
2018-05-13T13:09:25.113Z,37.34
2018-05-13T13:10:25.095Z,37.22
2018-05-13T13:11:25.349Z,37.07
2018-05-13T13:12:25.185Z,37.09
2018-05-13T13:13:25.223Z,37.06
2018-05-13T13:14:25.275Z,37.11
2018-05-13T13:15:25.324Z,37.15
2018-05-13T13:16:25.350Z,36.89
2018-05-13T13:17:25.390Z,36.80
2018-05-13T13:18:25.440Z,36.69
2018-05-13T13:19:25.485Z,36.78
2018-05-13T13:20:25.745Z,36.59
2018-05-13T13:21:25.582Z,36.59
2018-05-13T13:22:25.811Z,36.51
2018-05-13T13:23:25.645Z,36.35
2018-05-13T13:24:25.684Z,36.35
2018-05-13T13:25:25.735Z,36.41